Archival Weather

Republic

Farmingdale, New York (KFRG)

Report from: Wednesday, January 24, 2024 12:22 PM EST
Current time: Monday, June 17, 2024 3:47 AM EDT

Current weather – Weather history – Daily summaries
Weather forecast

Present weatherMist
Temperature6.1°C (43.0°F)
Wind chill4.1°C (39.5°F)
Dew point5.6°C (42.1°F)
Winds 5 kts (2.6 m/s, 5.8 mph) South-Southeast (150°)
Visibility1.5 mi. (2.4 km)
Clouds Ceiling: Overcast 400 ft. (122 m)
Altimeter30.48 in.Hg (1032 mB)
Relative humidity97 %
Density altitude-1,581 ft. (-482 m)
Remarks Automated weather observing station with precipitation discriminator
Flight conditions Low Instrument Meteorological Conditions
Raw dataKFRG 241722Z 15005KT 1 1/2SM BR OVC004 06/06 A3048 RMK AO2 T00610056
An error has occurred. This application may no longer respond until reloaded. Reload 🗙